Portada
METAR-TAF:

METAR-TAF

Aeroports :

Batesville, Arkansas, Estats Units d'Amèrica

latitud: 35-44N, longitud: 091-39W, altitud: 141 m

Observació

L'informe es va fer fa 11 minuts, a les 16:32 UTC
Vent 3 kt amb direcció variable
Temperatura 8°C
Humitat 93%
Pressió 1006 hPa
Visibilitat: 3.2 km
Cel ennuvolat a una alçada de 600 ft
Cel ennuvolat a una alçada de 1100 ft
Cel cobert a una alçada de 5500 ft
tempesta a les proximitats, pluja, boirina

METAR: KBVX 251632Z AUTO VRB03KT 2SM VCTS -RA BR BKN006 BKN011 OVC055 08/07 A2970 RMK AO2 LTG DSNT ALQDS TSE31B32 CIG 004V008 P0009

Hora: 10:43 (16:43 UTC)


TAF: manca

Observacions i pronòstics meteorològics de més de 4000 aeroports (METAR i TAF).

Les estacions disponibles són els punts grocs i vermells al mapa.

Posi el ratolí al punt desitjat per veure el nom de l'estació.

Feu clic per veure les observacions i els pronòstics meteorològics.

Per canviar el mapa: feu clic els botons verds amb una creu de color negre per apropar; al botó verd amb un guió per allunyar la imatge; o en les fletxes verdes per a mapes adjacents.


METAR-TAF: